Nearby METAR Reports

 

KBFI - Seattle/Boeing, Washington, USA
Distance from station: S 10mi, 16km
Updated: Tue, 25-Jun-2019 7:53am PDT
Mostly cloudy
Mostly cloudy
 Wind from E
Wind: E 3 mph , 6 km/h
Temperature: 59°F , 15°C
Dew Point: 48°F , 9°C
Humidity: 68%
Barometer: 29.91 inHg , 1012.9 hPa
Clouds: Mostly cloudy
Visibility: 10 miles , 16 km
Cloud details: Mostly cloudy 14000 ft
Mostly cloudy 25000 ft
2019/06/25 14:53 KBFI 251453Z 08003KT 10SM BKN140 BKN250 15/09 A2991 RMK AO2 SLP127 T01500089 51004
KRNT - Renton, Washington, USA
Distance from station: SSE 14mi, 23km
Updated: Tue, 25-Jun-2019 7:53am PDT
Clear
Clear
 Wind from S
Wind: S 3 mph , 6 km/h
Temperature: 57°F , 14°C
Dew Point: 48°F , 9°C
Humidity: 72%
Barometer: 29.91 inHg , 1012.9 hPa
Clouds: Clear
Visibility: 9 miles , 14 km
2019/06/25 14:53 KRNT 251453Z 17003KT 9SM CLR 14/09 A2991 RMK AO2 SLP132 T01390089 51003
 
KPAE - Everett, Washington, USA
Distance from station: N 15mi, 25km
Updated: Tue, 25-Jun-2019 7:53am PDT
Clear
Clear
 Wind from N
Wind: N 5 mph , 7 km/h
Temperature: 55°F , 13°C
Dew Point: 48°F , 9°C
Humidity: 77%
Barometer: 29.91 inHg , 1012.9 hPa
Clouds: Clear
Visibility: 10 miles , 16 km
2019/06/25 14:53 KPAE 251453Z 36004KT 10SM CLR 13/09 A2991 RMK AO2 SLP126 T01330089 50002
KSEA - Seattle/Metro, Washington, USA
Distance from station: S 17mi, 27km
Updated: Tue, 25-Jun-2019 7:53am PDT
Mostly cloudy
Mostly cloudy
 Wind from ESE
Wind: ESE 7 mph , 11 km/h
Temperature: 55°F , 13°C
Dew Point: 46°F , 8°C
Humidity: 72%
Barometer: 29.91 inHg , 1012.9 hPa
Clouds: Mostly cloudy
Visibility: 10 miles , 16 km
Cloud details: Mostly cloudy 14000 ft
Mostly cloudy 25000 ft
2019/06/25 14:53 KSEA 251453Z 11006KT 10SM BKN140 BKN250 13/08 A2991 RMK AO2 SLP133 T01330078 51004
 
KPWT - Bremerton Ntnl, Washington, USA
Distance from station: SW 24mi, 39km
Updated: Tue, 25-Jun-2019 7:56am PDT
Clear
Clear
 Wind from calm
Wind: Calm
Temperature: 57°F , 14°C
Dew Point: 48°F , 9°C
Humidity: 72%
Barometer: 29.91 inHg , 1012.9 hPa
Clouds: Clear
Visibility: 10 miles , 16 km
2019/06/25 14:56 KPWT 251456Z AUTO 00000KT 10SM CLR 14/09 A2991 RMK AO2 SLP143 T01390089 50002
KTIW - Tacoma, Washington, USA
Distance from station: SSW 32mi, 52km
Updated: Tue, 25-Jun-2019 7:53am PDT
Few Clouds
Few Clouds
 Wind from calm
Wind: Calm
Temperature: 54°F , 12°C
Dew Point: 46°F , 8°C
Humidity: 77%
Barometer: 29.91 inHg , 1012.9 hPa
Clouds: Few Clouds
Visibility: 10 miles , 16 km
Cloud details: Few Clouds 12000 ft
2019/06/25 14:53 KTIW 251453Z 00000KT 10SM FEW120 12/08 A2991 RMK AO2 SLP126 T01170083 51002
 
KAWO - Arlington Muni, Washington, USA
Distance from station: N 33mi, 54km
Updated: Tue, 25-Jun-2019 7:56am PDT
Clear
Clear
 Wind from calm
Wind: Calm
Temperature: 54°F , 12°C
Dew Point: 48°F , 9°C
Humidity: 82%
Barometer: 29.91 inHg , 1012.9 hPa
Clouds: Clear
Visibility: 10 miles , 16 km
2019/06/25 14:56 KAWO 251456Z AUTO 00000KT 10SM CLR 12/09 A2991 RMK AO2 SLP133 T01220089 50002
KTCM - Tacoma/Mc Chord, Washington, USA
Distance from station: S 41mi, 65km
Updated: Tue, 25-Jun-2019 7:58am PDT
Mostly cloudy
Mostly cloudy
 Wind from calm
Wind: Calm
Temperature: 54°F , 12°C
Dew Point: 54°F , 12°C
Humidity: 100%
Barometer: 29.91 inHg , 1012.9 hPa
Clouds: Mostly cloudy
Visibility: 10 miles , 16 km
Cloud details: Partly cloudy 11000 ft
Mostly cloudy 13000 ft
2019/06/25 14:58 KTCM 251458Z 00000KT 10SM SCT110 BKN130 12/12 A2991 RMK AO2A SLP132 T01220120 51003 $
 
KPLU - Puyallup/Thun, Washington, USA
Distance from station: S 41mi, 66km
Updated: Tue, 25-Jun-2019 8:15am PDT
Partly cloudy
Partly cloudy
 Wind from calm
Wind: Calm
Temperature: 57°F , 14°C
Dew Point: 48°F , 9°C
Humidity: 72%
Barometer: 29.91 inHg , 1012.9 hPa
Clouds: Partly cloudy
Visibility: 10 miles , 16 km
Cloud details: Partly cloudy 12000 ft
2019/06/25 15:15 KPLU 251515Z AUTO 00000KT 10SM SCT120 14/09 A2991 RMK AO2
KGRF - Fort Lewis/Gray, Washington, USA
Distance from station: SSW 45mi, 72km
Updated: Tue, 25-Jun-2019 7:58am PDT
Few Clouds
Few Clouds
 Wind from calm
Wind: Calm
Temperature: 54°F , 12°C
Dew Point: 52°F , 11°C
Humidity: 94%
Barometer: 29.90 inHg , 1012.5 hPa
Clouds: Few Clouds
Visibility: 10 miles , 16 km
Cloud details: Few Clouds 12000 ft
2019/06/25 14:58 KGRF 251458Z 00000KT 10SM FEW120 12/11 A2990 RMK AO2A SLP128 T01200112 50004 $
 
KNUW - Whidbey Is. Nas, Washington, USA
Distance from station: NNW 48mi, 77km
Updated: Tue, 25-Jun-2019 7:56am PDT
Mostly cloudy
Mostly cloudy
 Wind from calm
Wind: Calm
Temperature: 59°F , 15°C
Dew Point: 48°F , 9°C
Humidity: 68%
Barometer: 29.94 inHg , 1013.9 hPa
Clouds: Mostly cloudy
Visibility: 10 miles , 16 km
Cloud details: Few Clouds 4000 ft
Few Clouds 12000 ft
Mostly cloudy 25000 ft
2019/06/25 14:56 KNUW 251456Z 00000KT 10SM FEW040 FEW120 BKN250 15/09 A2994 RMK AO2 SLP138 T01500089 52000 $
KSHN - Shelton, Washington, USA
Distance from station: SW 50mi, 80km
Updated: Tue, 25-Jun-2019 7:53am PDT
Few Clouds
Few Clouds
 Wind from calm
Wind: Calm
Temperature: 54°F , 12°C
Dew Point: 48°F , 9°C
Humidity: 82%
Barometer: 29.89 inHg , 1012.2 hPa
Clouds: Few Clouds
Visibility: 10 miles , 16 km
Cloud details: Few Clouds 11000 ft
2019/06/25 14:53 KSHN 251453Z AUTO 00000KT 10SM FEW110 12/09 A2989 RMK AO2 SLP120 T01220089 50001